Time;durP1;ratioP1;P1;durP2;ratioP2;P2;SDS_P1;SDS_P2;PMS_P1;PMS_P2;Temp;Humidity;BMP_temperature;BMP_pressure;BME280_temperature;BME280_humidity;BME280_pressure;Samples;Min_cycle;Max_cycle;Signal;HPM_P1;HPM_P2
2021/11/19 00:01:20;;;;;;;17.20;14.33;;;5.60;99.90;;;;;;5049101;28;20448;-88
2021/11/19 00:03:50;;;;;;;20.53;14.17;;;5.60;99.90;;;;;;5050638;28;20482;-86
2021/11/19 00:06:17;;;;;;;15.57;13.97;;;5.70;99.90;;;;;;5048735;28;20870;-86
2021/11/19 00:08:45;;;;;;;16.07;13.67;;;5.70;99.90;;;;;;5057892;28;20507;-86
2021/11/19 00:11:16;;;;;;;22.90;14.93;;;5.60;99.90;;;;;;5057442;28;20417;-87
2021/11/19 00:13:44;;;;;;;19.53;16.67;;;5.60;99.90;;;;;;5067575;28;20432;-87
2021/11/19 00:16:12;;;;;;;20.77;17.40;;;5.50;99.90;;;;;;5045067;28;20457;-87
2021/11/19 00:18:40;;;;;;;23.60;17.47;;;5.50;99.90;;;;;;5045307;28;20518;-87
2021/11/19 00:21:07;;;;;;;24.40;16.30;;;5.50;99.90;;;;;;5045496;28;20808;-87
2021/11/19 00:23:34;;;;;;;19.97;16.47;;;5.50;99.90;;;;;;5045026;28;20967;-87
2021/11/19 00:26:03;;;;;;;20.43;16.20;;;5.50;99.90;;;;;;5044076;28;20449;-88
2021/11/19 00:28:30;;;;;;;20.13;16.63;;;5.40;99.90;;;;;;5051468;28;20525;-85
2021/11/19 00:30:59;;;;;;;23.13;18.20;;;5.40;99.90;;;;;;5054595;28;20453;-86
2021/11/19 00:33:26;;;;;;;22.87;16.60;;;5.40;99.90;;;;;;5052547;28;20475;-86
2021/11/19 00:35:54;;;;;;;16.53;14.17;;;5.30;99.90;;;;;;5046557;28;20806;-87
2021/11/19 00:38:21;;;;;;;21.17;16.17;;;5.40;99.90;;;;;;5044620;28;20477;-87
2021/11/19 00:40:55;;;;;;;22.30;15.53;;;5.40;99.90;;;;;;5045823;28;20468;-88
2021/11/19 00:43:23;;;;;;;21.03;15.63;;;5.30;99.90;;;;;;5048852;28;20938;-88
2021/11/19 00:45:51;;;;;;;17.67;15.80;;;5.30;99.90;;;;;;5044439;28;20852;-87
2021/11/19 00:48:19;;;;;;;22.40;16.50;;;5.30;99.90;;;;;;5043606;28;20464;-87
2021/11/19 00:50:48;;;;;;;24.73;16.40;;;5.20;99.90;;;;;;5042052;28;20441;-87
2021/11/19 00:53:16;;;;;;;22.50;17.07;;;5.20;99.90;;;;;;5044351;28;20441;-88
2021/11/19 00:55:43;;;;;;;23.80;16.47;;;5.20;99.90;;;;;;5043438;28;20499;-88
2021/11/19 00:58:11;;;;;;;21.50;15.80;;;5.20;99.90;;;;;;5043937;28;20487;-87
2021/11/19 01:00:48;;;;;;;22.33;15.93;;;5.30;99.90;;;;;;5042963;28;20449;-87
2021/11/19 01:03:15;;;;;;;18.67;15.70;;;5.20;99.90;;;;;;5044707;28;20444;-87
2021/11/19 01:05:43;;;;;;;18.87;14.83;;;5.20;99.90;;;;;;5045571;28;20445;-88
2021/11/19 01:08:11;;;;;;;17.20;15.43;;;5.20;99.90;;;;;;5042740;28;20465;-88
2021/11/19 01:10:40;;;;;;;20.20;16.03;;;5.20;99.90;;;;;;5044330;28;20446;-86
2021/11/19 01:13:09;;;;;;;19.73;15.87;;;5.10;99.90;;;;;;5051875;28;20442;-86
2021/11/19 01:15:39;;;;;;;19.23;16.10;;;5.10;99.90;;;;;;5067459;28;20445;-85
2021/11/19 01:18:11;;;;;;;25.73;16.37;;;5.10;99.90;;;;;;5066443;28;20461;-86
2021/11/19 01:20:42;;;;;;;20.57;16.73;;;5.00;99.90;;;;;;5067035;28;20456;-86
2021/11/19 01:23:12;;;;;;;17.57;15.77;;;5.00;99.90;;;;;;5054895;28;20448;-87
2021/11/19 01:25:45;;;;;;;19.63;15.67;;;5.00;99.90;;;;;;5058574;28;20430;-85
2021/11/19 01:28:12;;;;;;;19.87;14.60;;;4.90;99.90;;;;;;5054716;28;20475;-86
2021/11/19 01:30:42;;;;;;;20.17;15.17;;;4.90;99.90;;;;;;5051725;28;20887;-87
2021/11/19 01:33:10;;;;;;;17.07;14.33;;;4.90;99.90;;;;;;5051329;28;20445;-87
2021/11/19 01:35:38;;;;;;;23.60;16.40;;;5.00;99.90;;;;;;5048897;28;20441;-87
2021/11/19 01:38:06;;;;;;;18.10;14.10;;;5.00;99.90;;;;;;5047636;28;20829;-86
2021/11/19 01:40:37;;;;;;;21.03;15.97;;;4.90;99.90;;;;;;5044726;28;20437;-87
2021/11/19 01:43:07;;;;;;;19.43;14.83;;;4.90;99.90;;;;;;5044995;28;20452;-87
2021/11/19 01:45:37;;;;;;;17.77;14.70;;;4.90;99.90;;;;;;5047468;28;20499;-86
2021/11/19 01:48:06;;;;;;;17.10;14.20;;;4.80;99.90;;;;;;5047461;28;20980;-87
2021/11/19 01:50:37;;;;;;;15.43;13.87;;;4.90;99.90;;;;;;5044274;28;20540;-86
2021/11/19 01:53:07;;;;;;;19.17;14.57;;;4.90;99.90;;;;;;5047398;28;20448;-87
2021/11/19 01:55:37;;;;;;;17.13;14.20;;;4.90;99.90;;;;;;5059230;28;20926;-87
2021/11/19 01:58:10;;;;;;;18.87;15.40;;;4.90;99.90;;;;;;5044814;28;20487;-86
2021/11/19 02:00:40;;;;;;;18.53;14.77;;;4.80;99.90;;;;;;5047228;28;20452;-86
2021/11/19 02:03:09;;;;;;;16.43;13.30;;;4.80;99.90;;;;;;5054575;28;20966;-85
2021/11/19 02:05:39;;;;;;;15.53;14.00;;;4.80;99.90;;;;;;5054151;28;20432;-86
2021/11/19 02:08:10;;;;;;;16.20;13.57;;;4.70;99.90;;;;;;5046767;28;21022;-86
2021/11/19 02:10:44;;;;;;;19.30;15.33;;;4.60;99.90;;;;;;5054012;28;20445;-85
2021/11/19 02:13:19;;;;;;;21.23;13.83;;;4.70;99.90;;;;;;5056355;28;20835;-85
2021/11/19 02:15:52;;;;;;;23.97;15.00;;;4.70;99.90;;;;;;5047546;28;20943;-86
2021/11/19 02:18:23;;;;;;;23.97;16.97;;;4.70;99.90;;;;;;5044541;28;20480;-87
2021/11/19 02:20:53;;;;;;;22.10;15.77;;;4.70;99.90;;;;;;5056636;28;20813;-87
2021/11/19 02:23:23;;;;;;;23.03;17.60;;;4.60;99.90;;;;;;5044679;28;20447;-87
2021/11/19 02:25:54;;;;;;;21.20;16.33;;;4.60;99.90;;;;;;5045855;28;20454;-87
2021/11/19 02:28:31;;;;;;;21.43;16.77;;;4.60;99.90;;;;;;5047040;28;20457;-86
2021/11/19 02:31:00;;;;;;;20.13;16.37;;;4.60;99.90;;;;;;5052122;28;20449;-86
2021/11/19 02:33:31;;;;;;;21.33;15.83;;;4.60;99.90;;;;;;5048811;28;20944;-87
2021/11/19 02:36:08;;;;;;;18.17;14.50;;;4.60;99.90;;;;;;5050851;28;20456;-86
2021/11/19 02:38:39;;;;;;;18.43;14.30;;;4.60;99.90;;;;;;5046584;28;20483;-86
2021/11/19 02:41:07;;;;;;;22.40;15.07;;;4.60;99.90;;;;;;5052286;28;20425;-86
2021/11/19 02:43:42;;;;;;;16.33;13.87;;;4.60;99.90;;;;;;5055421;28;20453;-87
2021/11/19 02:46:09;;;;;;;21.07;15.40;;;4.50;99.90;;;;;;5050173;28;20452;-86
2021/11/19 02:48:37;;;;;;;19.00;14.87;;;4.50;99.90;;;;;;5046069;28;20460;-86
2021/11/19 02:51:08;;;;;;;20.27;14.60;;;4.50;99.90;;;;;;5055100;28;20453;-87
2021/11/19 02:53:36;;;;;;;20.60;15.80;;;4.50;99.90;;;;;;5067020;28;20438;-86
2021/11/19 02:56:02;;;;;;;21.00;15.23;;;4.50;99.90;;;;;;5050288;28;20468;-86
2021/11/19 02:58:33;;;;;;;19.90;15.30;;;4.50;99.90;;;;;;5045167;28;20481;-86
2021/11/19 03:01:06;;;;;;;22.70;15.17;;;4.40;99.90;;;;;;5049794;28;20441;-86
2021/11/19 03:03:33;;;;;;;17.27;14.63;;;4.40;99.90;;;;;;5045264;28;20456;-87
2021/11/19 03:06:00;;;;;;;15.63;13.47;;;4.40;99.90;;;;;;5044951;28;20515;-86
2021/11/19 03:08:28;;;;;;;18.20;14.20;;;4.40;99.90;;;;;;5045961;28;20487;-86
2021/11/19 03:10:56;;;;;;;19.53;15.23;;;4.40;99.90;;;;;;5044598;28;20447;-87
2021/11/19 03:13:25;;;;;;;15.30;13.80;;;4.40;99.90;;;;;;5044622;28;20444;-86
2021/11/19 03:15:53;;;;;;;16.10;14.03;;;4.30;99.90;;;;;;5044853;28;20456;-87
2021/11/19 03:18:23;;;;;;;22.10;15.80;;;4.30;99.90;;;;;;5045165;28;20480;-87
2021/11/19 03:20:53;;;;;;;16.93;15.07;;;4.30;99.90;;;;;;5045226;28;20996;-87
2021/11/19 03:23:21;;;;;;;20.80;14.30;;;4.30;99.90;;;;;;5047465;28;20447;-86
2021/11/19 03:25:49;;;;;;;19.83;14.90;;;4.30;99.90;;;;;;5043818;28;20445;-86
2021/11/19 03:28:18;;;;;;;24.10;16.13;;;4.30;99.90;;;;;;5043758;28;20530;-86
2021/11/19 03:30:47;;;;;;;20.83;15.40;;;4.30;99.90;;;;;;5051714;28;20437;-86
2021/11/19 03:33:18;;;;;;;17.23;15.10;;;4.30;99.90;;;;;;5067876;28;20436;-86
2021/11/19 03:35:46;;;;;;;22.73;14.50;;;4.30;99.90;;;;;;5050489;28;20472;-86
2021/11/19 03:38:14;;;;;;;16.13;13.80;;;4.30;99.90;;;;;;5046087;28;20477;-86
2021/11/19 03:40:43;;;;;;;17.67;13.93;;;4.30;99.90;;;;;;5046001;28;20451;-87
2021/11/19 03:43:14;;;;;;;17.00;13.77;;;4.30;99.90;;;;;;5057104;28;20432;-85
2021/11/19 03:45:43;;;;;;;16.07;14.33;;;4.20;99.90;;;;;;5055732;28;20455;-86
2021/11/19 03:48:12;;;;;;;16.77;14.60;;;4.20;99.90;;;;;;5049183;28;20952;-87
2021/11/19 03:50:41;;;;;;;15.53;13.40;;;4.20;99.90;;;;;;5044227;28;20452;-87
2021/11/19 03:53:11;;;;;;;17.67;13.87;;;4.20;99.90;;;;;;5043244;28;20486;-87
2021/11/19 03:55:45;;;;;;;16.60;13.97;;;4.10;99.90;;;;;;5044399;28;20449;-87
2021/11/19 03:58:12;;;;;;;20.33;14.53;;;4.10;99.90;;;;;;5044149;28;20488;-87
2021/11/19 04:00:41;;;;;;;18.00;14.10;;;4.10;99.90;;;;;;5044157;28;20452;-87
2021/11/19 04:03:10;;;;;;;18.40;15.67;;;4.10;99.90;;;;;;5043581;28;20462;-87
2021/11/19 04:05:37;;;;;;;21.23;15.73;;;4.00;99.90;;;;;;5044688;28;20446;-87
2021/11/19 04:08:05;;;;;;;20.37;17.00;;;4.00;99.90;;;;;;5042301;28;20464;-86
2021/11/19 04:10:34;;;;;;;19.17;15.73;;;4.00;99.90;;;;;;5044990;28;20487;-86
2021/11/19 04:13:02;;;;;;;22.80;17.03;;;4.00;99.90;;;;;;5045022;28;20453;-88
2021/11/19 04:15:31;;;;;;;19.43;15.20;;;4.00;99.90;;;;;;5043316;28;20433;-88
2021/11/19 04:17:58;;;;;;;19.30;15.93;;;4.00;99.90;;;;;;5043154;28;20484;-87
2021/11/19 04:20:26;;;;;;;19.97;17.73;;;4.00;99.90;;;;;;5050766;28;20967;-88
2021/11/19 04:22:53;;;;;;;19.40;15.87;;;4.00;99.90;;;;;;5053573;28;20460;-88
2021/11/19 04:25:23;;;;;;;19.30;15.20;;;3.90;99.90;;;;;;5058228;28;20446;-89
2021/11/19 04:27:53;;;;;;;21.70;16.07;;;3.90;99.90;;;;;;5056410;28;20469;-88
2021/11/19 04:30:29;;;;;;;18.53;14.97;;;3.80;99.90;;;;;;5063586;28;20433;-88
2021/11/19 04:32:56;;;;;;;23.90;15.07;;;3.80;99.90;;;;;;5052057;28;20449;-88
2021/11/19 04:35:23;;;;;;;16.73;14.80;;;3.70;99.90;;;;;;5043897;28;20449;-88
2021/11/19 04:37:50;;;;;;;19.23;15.40;;;3.70;99.90;;;;;;5047256;28;20472;-88
2021/11/19 04:40:18;;;;;;;18.63;15.80;;;3.70;99.90;;;;;;5045859;28;20441;-88
2021/11/19 04:42:46;;;;;;;21.37;16.60;;;3.80;99.90;;;;;;5050890;28;20449;-88
2021/11/19 04:45:18;;;;;;;19.10;16.07;;;3.80;99.90;;;;;;5045652;28;20454;-87
2021/11/19 04:47:45;;;;;;;18.90;16.07;;;3.80;99.90;;;;;;5051519;28;21042;-88
2021/11/19 04:50:14;;;;;;;20.00;15.73;;;3.80;99.90;;;;;;5046315;28;20440;-88
2021/11/19 04:52:41;;;;;;;18.30;15.10;;;3.80;99.90;;;;;;5045130;28;20787;-88
2021/11/19 04:55:10;;;;;;;19.47;15.87;;;3.70;99.90;;;;;;5049259;28;20455;-88
2021/11/19 04:57:37;;;;;;;17.07;14.37;;;3.70;99.90;;;;;;5049138;28;20459;-88
2021/11/19 05:00:08;;;;;;;18.97;16.07;;;3.70;99.90;;;;;;5055373;28;21004;-88
2021/11/19 05:02:36;;;;;;;16.50;14.30;;;3.70;99.90;;;;;;5044897;28;20448;-88
2021/11/19 05:05:04;;;;;;;16.80;15.00;;;3.60;99.90;;;;;;5044654;28;20456;-88
2021/11/19 05:07:30;;;;;;;19.67;14.83;;;3.60;99.90;;;;;;5051504;28;20467;-87
2021/11/19 05:09:57;;;;;;;19.23;15.27;;;3.50;99.90;;;;;;5044574;28;20449;-88
2021/11/19 05:12:33;;;;;;;19.37;15.60;;;3.60;99.90;;;;;;5047036;28;20460;-87
2021/11/19 05:14:59;;;;;;;16.70;14.20;;;3.60;99.90;;;;;;5046903;28;20818;-87
2021/11/19 05:17:27;;;;;;;21.80;14.30;;;3.60;99.90;;;;;;5053122;28;20461;-88
2021/11/19 05:19:55;;;;;;;18.33;16.30;;;3.50;99.90;;;;;;5050429;28;20498;-87
2021/11/19 05:22:22;;;;;;;21.27;15.67;;;3.60;99.90;;;;;;5051574;28;20429;-88
2021/11/19 05:24:50;;;;;;;22.40;17.83;;;3.60;99.90;;;;;;5052924;28;20460;-87
2021/11/19 05:27:18;;;;;;;25.23;16.00;;;3.70;99.90;;;;;;5044599;28;20470;-87
2021/11/19 05:29:45;;;;;;;19.27;16.23;;;3.60;99.90;;;;;;5053128;28;20443;-89
2021/11/19 05:32:12;;;;;;;20.73;16.30;;;3.70;99.90;;;;;;5045750;28;20447;-89
2021/11/19 05:34:40;;;;;;;26.30;17.20;;;3.70;99.90;;;;;;5044874;28;20452;-89
2021/11/19 05:37:08;;;;;;;23.70;16.57;;;3.70;99.90;;;;;;5050222;28;20475;-87
2021/11/19 05:39:35;;;;;;;20.83;17.10;;;3.70;99.90;;;;;;5043919;28;20489;-88
2021/11/19 05:42:02;;;;;;;25.23;18.17;;;3.70;99.90;;;;;;5041339;28;20920;-88
2021/11/19 05:44:29;;;;;;;24.43;17.57;;;3.70;99.90;;;;;;5043356;28;20451;-86
2021/11/19 05:46:56;;;;;;;24.70;17.20;;;3.70;99.90;;;;;;5047458;28;20465;-87
2021/11/19 05:49:25;;;;;;;25.93;16.37;;;3.70;99.90;;;;;;5066508;28;20443;-87
2021/11/19 05:51:53;;;;;;;24.70;19.67;;;3.70;99.90;;;;;;5054642;28;20440;-87
2021/11/19 05:54:24;;;;;;;23.60;17.30;;;3.60;99.90;;;;;;5047718;28;20453;-87
2021/11/19 05:56:52;;;;;;;25.60;18.13;;;3.70;99.90;;;;;;5047101;28;20465;-87
2021/11/19 05:59:20;;;;;;;23.60;17.90;;;3.70;99.90;;;;;;5045284;28;20483;-89
2021/11/19 06:01:47;;;;;;;22.33;16.97;;;3.70;99.90;;;;;;5070313;28;20444;-88
2021/11/19 06:04:14;;;;;;;24.57;16.87;;;3.70;99.90;;;;;;5051037;28;20496;-87
2021/11/19 06:06:42;;;;;;;25.20;19.67;;;3.70;99.90;;;;;;5041974;28;20472;-88
2021/11/19 06:09:14;;;;;;;26.33;18.93;;;3.80;99.90;;;;;;5048018;28;20458;-87
2021/11/19 06:11:46;;;;;;;25.10;18.13;;;3.90;99.90;;;;;;5044311;28;20531;-86
2021/11/19 06:14:17;;;;;;;20.77;18.40;;;4.00;99.90;;;;;;5051247;28;20420;-86
2021/11/19 06:16:48;;;;;;;20.13;17.73;;;4.00;99.90;;;;;;5093658;22;20487;-87
2021/11/19 06:19:19;;;;;;;20.50;17.90;;;4.10;99.90;;;;;;5087316;28;20462;-87
2021/11/19 06:21:51;;;;;;;21.10;17.63;;;4.20;99.90;;;;;;5082603;28;20420;-87
2021/11/19 06:24:22;;;;;;;23.23;19.20;;;4.20;99.90;;;;;;5076029;28;20830;-87
2021/11/19 06:26:51;;;;;;;24.97;18.30;;;4.20;99.90;;;;;;5071311;28;20492;-88
2021/11/19 06:29:17;;;;;;;26.33;21.07;;;4.30;99.90;;;;;;5070500;28;20912;-86
2021/11/19 06:31:48;;;;;;;28.00;21.90;;;4.30;99.90;;;;;;5068239;28;20447;-86
2021/11/19 06:34:15;;;;;;;27.90;21.37;;;4.40;99.90;;;;;;5068246;28;20439;-86
2021/11/19 06:36:42;;;;;;;23.57;19.20;;;4.40;99.90;;;;;;5069340;28;20472;-87
2021/11/19 06:39:11;;;;;;;20.33;18.07;;;4.40;99.90;;;;;;5072785;28;20459;-87
2021/11/19 06:41:38;;;;;;;20.70;16.90;;;4.50;99.90;;;;;;5090811;28;20438;-88
2021/11/19 06:44:08;;;;;;;21.73;17.23;;;4.50;99.90;;;;;;5083527;28;20436;-87
2021/11/19 06:46:34;;;;;;;23.67;17.60;;;4.50;99.90;;;;;;5075288;28;20451;-88
2021/11/19 06:49:03;;;;;;;20.30;15.10;;;4.60;99.90;;;;;;5066838;28;20535;-87
2021/11/19 06:51:30;;;;;;;20.23;15.57;;;4.60;99.90;;;;;;5088133;28;20433;-87
2021/11/19 06:53:58;;;;;;;20.70;15.77;;;4.70;99.90;;;;;;5079885;28;20450;-87
2021/11/19 06:56:25;;;;;;;19.57;15.87;;;4.70;99.90;;;;;;5067289;28;20453;-88
2021/11/19 06:58:52;;;;;;;17.23;14.67;;;4.70;99.90;;;;;;5064481;28;20475;-87
2021/11/19 07:01:20;;;;;;;24.60;16.60;;;4.80;99.90;;;;;;5069342;28;20468;-87
2021/11/19 07:03:47;;;;;;;20.83;18.60;;;4.80;99.90;;;;;;5068348;28;20463;-87
2021/11/19 07:06:14;;;;;;;25.30;18.60;;;4.80;99.90;;;;;;5082493;28;20463;-87
2021/11/19 07:08:41;;;;;;;23.40;18.30;;;4.80;99.90;;;;;;5086239;28;20475;-87
2021/11/19 07:11:12;;;;;;;23.67;17.80;;;4.80;99.90;;;;;;5076022;28;20440;-86
2021/11/19 07:13:39;;;;;;;26.30;19.37;;;4.80;99.90;;;;;;5072441;28;20443;-86
2021/11/19 07:16:06;;;;;;;23.70;18.30;;;4.80;99.90;;;;;;5067827;28;20554;-87
2021/11/19 07:18:35;;;;;;;21.67;16.40;;;4.80;99.90;;;;;;5086237;28;20415;-86
2021/11/19 07:21:02;;;;;;;21.70;17.77;;;4.90;99.90;;;;;;5077262;28;20444;-87
2021/11/19 07:23:29;;;;;;;18.07;14.53;;;4.80;99.90;;;;;;5066195;28;20922;-87
2021/11/19 07:25:56;;;;;;;26.13;17.30;;;4.90;99.90;;;;;;5075032;28;20465;-86
2021/11/19 07:28:24;;;;;;;24.03;16.07;;;5.00;99.90;;;;;;5069614;28;20440;-87
2021/11/19 07:30:52;;;;;;;18.50;15.93;;;5.10;99.90;;;;;;5062646;28;20484;-89
2021/11/19 07:33:21;;;;;;;19.30;13.50;;;5.20;99.90;;;;;;5066471;28;20445;-87
2021/11/19 07:35:54;;;;;;;17.10;15.30;;;5.20;99.90;;;;;;5071972;28;20456;-83
2021/11/19 07:38:24;;;;;;;20.37;15.93;;;5.30;99.90;;;;;;5066078;28;20451;-82
2021/11/19 07:40:53;;;;;;;16.30;14.13;;;5.40;99.90;;;;;;5066143;28;21051;-83
2021/11/19 07:43:22;;;;;;;16.93;15.13;;;5.40;99.90;;;;;;5080635;28;20451;-87
2021/11/19 07:45:50;;;;;;;15.87;13.90;;;5.40;99.90;;;;;;5068161;28;20484;-86
2021/11/19 07:48:21;;;;;;;19.63;15.30;;;5.40;99.90;;;;;;5063638;28;20449;-86
2021/11/19 07:50:52;;;;;;;21.87;15.77;;;5.50;99.90;;;;;;5077143;28;20540;-85
2021/11/19 07:53:21;;;;;;;23.00;15.90;;;5.50;99.90;;;;;;5076362;28;20447;-85
2021/11/19 07:55:50;;;;;;;26.67;18.63;;;5.50;99.90;;;;;;5077781;28;20451;-84
2021/11/19 07:58:18;;;;;;;22.77;18.90;;;5.40;99.90;;;;;;5071098;28;20821;-87
2021/11/19 08:00:47;;;;;;;23.10;18.53;;;5.40;99.90;;;;;;5062232;28;20480;-86
2021/11/19 08:03:15;;;;;;;34.97;19.83;;;5.50;99.90;;;;;;5063949;28;20467;-87
2021/11/19 08:05:45;;;;;;;32.00;19.47;;;5.50;99.90;;;;;;5071190;28;20464;-87
2021/11/19 08:08:13;;;;;;;32.23;20.37;;;5.50;99.90;;;;;;5065549;28;20666;-87
2021/11/19 08:10:40;;;;;;;26.17;21.00;;;5.60;99.90;;;;;;5064718;28;20446;-85
2021/11/19 08:13:07;;;;;;;25.87;20.23;;;5.70;99.90;;;;;;5064473;28;20435;-86
2021/11/19 08:15:35;;;;;;;23.27;18.03;;;5.80;99.90;;;;;;5065316;28;20494;-86
2021/11/19 08:18:03;;;;;;;21.63;18.87;;;5.80;99.90;;;;;;5064326;28;20444;-86
2021/11/19 08:20:36;;;;;;;25.30;18.37;;;5.90;99.90;;;;;;5065959;28;20467;-86
2021/11/19 08:23:04;;;;;;;23.20;18.30;;;5.90;99.90;;;;;;5081067;28;20438;-86
2021/11/19 08:25:32;;;;;;;25.10;18.90;;;6.00;99.90;;;;;;5072451;28;20465;-86
2021/11/19 08:28:00;;;;;;;23.67;18.27;;;6.10;99.90;;;;;;5080172;28;20441;-86
2021/11/19 08:30:31;;;;;;;25.67;18.80;;;6.20;99.90;;;;;;5074355;28;20432;-87
2021/11/19 08:32:58;;;;;;;26.27;16.93;;;6.30;99.90;;;;;;5078405;28;20438;-86
2021/11/19 08:35:25;;;;;;;18.40;16.47;;;6.30;99.90;;;;;;5070589;28;20459;-85
2021/11/19 08:37:53;;;;;;;20.87;17.33;;;6.30;99.90;;;;;;5070419;28;20439;-87
2021/11/19 08:40:20;;;;;;;33.57;20.57;;;6.30;99.90;;;;;;5074650;28;21048;-86
2021/11/19 08:42:48;;;;;;;23.17;15.10;;;6.30;99.90;;;;;;5077047;28;20452;-87
2021/11/19 08:45:18;;;;;;;20.40;16.90;;;6.30;99.90;;;;;;5068792;28;20472;-86
2021/11/19 08:47:46;;;;;;;26.27;18.30;;;6.30;99.90;;;;;;5070716;28;20861;-86
2021/11/19 08:50:14;;;;;;;24.30;16.80;;;6.20;99.90;;;;;;5075370;28;20443;-87
2021/11/19 08:52:41;;;;;;;23.43;17.80;;;6.30;99.90;;;;;;5069642;28;20445;-87
2021/11/19 08:55:11;;;;;;;27.33;20.40;;;6.30;99.90;;;;;;5065515;28;20454;-87
2021/11/19 08:57:38;;;;;;;26.63;16.50;;;6.30;99.90;;;;;;5059608;28;20443;-87
2021/11/19 09:00:12;;;;;;;21.10;15.67;;;6.30;99.90;;;;;;5056435;28;20479;-87
2021/11/19 09:02:39;;;;;;;22.67;17.77;;;6.30;99.90;;;;;;5062065;28;20447;-87
2021/11/19 09:05:07;;;;;;;24.57;17.03;;;6.30;99.90;;;;;;5059192;28;20459;-87
2021/11/19 09:07:37;;;;;;;24.03;16.70;;;6.40;99.90;;;;;;5078415;28;20454;-87
2021/11/19 09:10:07;;;;;;;20.90;16.73;;;6.40;99.90;;;;;;5065824;28;20471;-87
2021/11/19 09:12:34;;;;;;;20.30;16.20;;;6.50;99.90;;;;;;5066219;28;20426;-87
2021/11/19 09:15:02;;;;;;;24.17;15.70;;;6.60;99.90;;;;;;5060550;28;20482;-87
2021/11/19 09:18:02;;;;;;;22.93;16.50;;;6.60;99.90;;;;;;5062723;28;20455;-86
2021/11/19 09:20:38;;;;;;;19.43;16.33;;;6.70;99.90;;;;;;5061366;28;20476;-86
2021/11/19 09:23:08;;;;;;;17.30;15.40;;;6.70;99.90;;;;;;5060986;28;20477;-86
2021/11/19 09:25:36;;;;;;;26.27;20.30;;;6.70;99.90;;;;;;5065900;28;20464;-86
2021/11/19 09:28:04;;;;;;;21.60;17.57;;;6.70;99.90;;;;;;5063304;28;20462;-87
2021/11/19 09:30:37;;;;;;;20.47;17.90;;;6.70;99.90;;;;;;5070148;28;20486;-87
2021/11/19 09:33:07;;;;;;;21.03;15.50;;;6.70;99.90;;;;;;5072237;28;20504;-87
2021/11/19 09:35:38;;;;;;;23.97;18.20;;;6.70;99.90;;;;;;5076371;28;20471;-89
2021/11/19 09:38:07;;;;;;;21.63;18.67;;;6.70;99.90;;;;;;5072642;28;20443;-90
2021/11/19 09:40:40;;;;;;;22.27;19.27;;;6.70;99.90;;;;;;5084422;28;20474;-88
2021/11/19 09:43:19;;;;;;;26.90;19.63;;;6.70;99.90;;;;;;5065281;28;20439;-89
2021/11/19 09:46:10;;;;;;;21.43;18.23;;;6.60;99.90;;;;;;5069610;28;20465;-88
2021/11/19 09:49:03;;;;;;;23.73;18.00;;;6.60;99.90;;;;;;5077108;28;20435;-87
2021/11/19 09:52:28;;;;;;;21.20;17.13;;;6.70;99.90;;;;;;5064366;28;20432;-87
2021/11/19 09:55:39;;;;;;;22.87;17.47;;;6.70;99.90;;;;;;4991802;28;20467;-87
2021/11/19 09:58:34;;;;;;;24.70;19.23;;;6.80;99.90;;;;;;5063850;28;20444;-87
2021/11/19 10:01:38;;;;;;;30.17;21.17;;;6.80;99.90;;;;;;5065314;28;20476;-87
2021/11/19 10:04:38;;;;;;;24.00;18.20;;;6.80;99.90;;;;;;5067187;28;20443;-87
2021/11/19 10:07:19;;;;;;;27.47;20.13;;;6.80;99.90;;;;;;5070461;28;20458;-88
2021/11/19 10:09:56;;;;;;;21.30;17.97;;;7.00;99.90;;;;;;5068110;28;20451;-88
2021/11/19 10:12:27;;;;;;;21.07;18.33;;;7.20;99.90;;;;;;5073658;28;20448;-88
2021/11/19 10:14:59;;;;;;;22.10;17.67;;;7.40;99.90;;;;;;5081098;28;20454;-86
2021/11/19 10:17:42;;;;;;;23.47;18.70;;;7.60;99.90;;;;;;5095436;28;20495;-85
2021/11/19 10:20:16;;;;;;;31.27;19.50;;;7.80;99.90;;;;;;5082541;28;20499;-87
2021/11/19 10:22:47;;;;;;;21.83;18.67;;;7.70;99.90;;;;;;5085948;28;20517;-87
2021/11/19 10:25:18;;;;;;;23.87;18.03;;;7.70;99.90;;;;;;5078055;28;20449;-88
2021/11/19 10:27:47;;;;;;;25.73;17.77;;;7.50;99.90;;;;;;5074719;28;20546;-88
2021/11/19 10:30:36;;;;;;;21.00;16.80;;;7.40;99.90;;;;;;5068766;28;20511;-88
2021/11/19 10:33:09;;;;;;;25.97;18.40;;;7.30;99.90;;;;;;5068172;28;20528;-87
2021/11/19 10:35:58;;;;;;;24.57;17.90;;;7.60;99.90;;;;;;5066760;28;20825;-87
2021/11/19 10:39:18;;;;;;;28.57;17.30;;;7.80;99.90;;;;;;5066841;28;20449;-88
2021/11/19 10:42:31;;;;;;;23.93;17.30;;;8.00;99.90;;;;;;5064884;28;20477;-88
2021/11/19 10:45:35;;;;;;;26.67;19.00;;;8.00;99.90;;;;;;5064893;28;20498;-88
2021/11/19 10:48:30;;;;;;;31.53;20.60;;;8.00;99.90;;;;;;5080875;28;20420;-87
2021/11/19 10:51:25;;;;;;;22.47;18.77;;;8.00;99.90;;;;;;5063151;28;20433;-87
2021/11/19 10:54:24;;;;;;;23.10;18.13;;;8.10;99.90;;;;;;5070113;28;20840;-87
2021/11/19 10:56:59;;;;;;;24.17;16.77;;;8.30;99.90;;;;;;5063280;28;20470;-88
2021/11/19 10:59:34;;;;;;;19.60;16.00;;;8.40;99.90;;;;;;5062905;28;20447;-88
2021/11/19 11:02:31;;;;;;;28.27;16.97;;;8.50;99.90;;;;;;5062333;28;20467;-87
2021/11/19 11:05:00;;;;;;;21.97;16.07;;;8.60;99.90;;;;;;5063787;28;21067;-88
2021/11/19 11:07:31;;;;;;;20.87;15.30;;;8.30;99.90;;;;;;5068756;28;20440;-88
2021/11/19 11:10:04;;;;;;;22.40;16.10;;;8.30;99.90;;;;;;5062625;28;20456;-87
2021/11/19 11:12:43;;;;;;;28.30;18.50;;;8.10;99.90;;;;;;5058443;28;20482;-87
2021/11/19 11:15:24;;;;;;;28.63;19.10;;;8.10;99.90;;;;;;5063202;28;20470;-88
2021/11/19 11:18:00;;;;;;;23.33;17.70;;;8.30;99.90;;;;;;5060827;28;20454;-87
2021/11/19 11:20:29;;;;;;;23.80;17.67;;;8.60;99.90;;;;;;5061586;28;20470;-87
2021/11/19 11:23:00;;;;;;;26.50;19.57;;;8.90;99.90;;;;;;5065998;28;20820;-88
2021/11/19 11:25:29;;;;;;;22.73;16.47;;;9.10;99.90;;;;;;5063907;28;20495;-86
2021/11/19 11:28:15;;;;;;;22.87;17.70;;;9.20;99.90;;;;;;5062244;28;20533;-87
2021/11/19 11:30:54;;;;;;;27.47;17.63;;;9.00;99.90;;;;;;5062375;28;20553;-87
2021/11/19 11:33:24;;;;;;;20.97;16.57;;;9.10;99.90;;;;;;5062230;28;20465;-87
2021/11/19 11:35:54;;;;;;;26.00;17.83;;;9.00;99.90;;;;;;5062458;28;20471;-88
2021/11/19 11:38:44;;;;;;;21.73;18.20;;;9.00;99.90;;;;;;5068763;28;20423;-87
2021/11/19 11:41:25;;;;;;;22.23;16.80;;;9.10;99.90;;;;;;5072033;28;20484;-87
2021/11/19 11:44:13;;;;;;;20.90;17.07;;;9.30;99.90;;;;;;5066110;28;20498;-88
2021/11/19 11:46:55;;;;;;;21.40;16.47;;;9.60;99.90;;;;;;5076810;28;20892;-86
2021/11/19 11:49:32;;;;;;;29.13;16.90;;;9.90;99.90;;;;;;5081328;28;20817;-88
2021/11/19 11:52:16;;;;;;;27.70;18.70;;;9.70;99.90;;;;;;5078733;28;20423;-87
2021/11/19 11:55:03;;;;;;;22.03;16.50;;;9.60;99.90;;;;;;5077069;28;21231;-88
2021/11/19 11:57:49;;;;;;;22.50;18.07;;;9.40;99.90;;;;;;5064393;28;20462;-88
2021/11/19 12:00:21;;;;;;;20.90;15.73;;;9.10;99.90;;;;;;5076892;28;20444;-88
2021/11/19 12:02:55;;;;;;;27.00;18.73;;;9.20;99.90;;;;;;5066928;28;20444;-90
2021/11/19 12:05:40;;;;;;;25.57;17.50;;;9.10;99.90;;;;;;5061598;28;20991;-88
2021/11/19 12:08:40;;;;;;;25.73;19.13;;;9.20;99.90;;;;;;5067902;28;20470;-87
2021/11/19 12:11:37;;;;;;;26.10;19.67;;;8.90;99.90;;;;;;5072151;28;20452;-88
2021/11/19 12:14:17;;;;;;;26.43;19.43;;;9.00;99.90;;;;;;5080663;28;20486;-87
2021/11/19 12:16:50;;;;;;;33.23;19.20;;;8.90;99.90;;;;;;5077663;28;20473;-85
2021/11/19 12:19:22;;;;;;;27.10;18.80;;;9.00;99.90;;;;;;5067691;28;20539;-85
2021/11/19 12:21:53;;;;;;;24.20;19.10;;;9.00;99.90;;;;;;5063585;28;20487;-86
2021/11/19 12:24:27;;;;;;;24.67;18.80;;;9.20;99.90;;;;;;5065783;28;20448;-86
2021/11/19 12:27:13;;;;;;;23.00;18.70;;;9.30;99.90;;;;;;5069950;28;20487;-90
2021/11/19 12:29:48;;;;;;;29.83;21.10;;;9.40;99.90;;;;;;5063365;28;20535;-89
2021/11/19 12:32:19;;;;;;;22.70;18.20;;;9.40;99.90;;;;;;5058269;28;20444;-87
2021/11/19 12:34:52;;;;;;;33.00;18.77;;;9.20;99.90;;;;;;5066068;28;20443;-86
2021/11/19 12:37:25;;;;;;;24.73;20.23;;;9.10;99.90;;;;;;5061113;28;20439;-88
2021/11/19 12:39:53;;;;;;;25.00;17.10;;;9.30;99.90;;;;;;5061566;28;20452;-88
2021/11/19 12:42:24;;;;;;;26.33;17.47;;;9.40;99.90;;;;;;5063926;28;20470;-87
2021/11/19 12:45:17;;;;;;;20.47;17.30;;;9.50;99.90;;;;;;5064005;28;20445;-87
2021/11/19 12:48:20;;;;;;;22.80;17.63;;;9.70;99.90;;;;;;5061866;28;20433;-89
2021/11/19 12:50:54;;;;;;;24.93;18.50;;;9.60;99.90;;;;;;5057977;28;20446;-88
2021/11/19 12:53:44;;;;;;;29.07;17.60;;;9.50;99.90;;;;;;5061376;28;20440;-88
2021/11/19 12:56:20;;;;;;;22.33;19.73;;;9.40;99.90;;;;;;5067008;28;20468;-88
2021/11/19 12:58:52;;;;;;;23.57;18.87;;;9.40;99.90;;;;;;5069984;28;20440;-88
2021/11/19 13:01:42;;;;;;;20.10;17.07;;;9.30;99.90;;;;;;5060402;28;20482;-86